Aeroporto :
LOGIN :

Iscrizione | Disclaimer

   EN    FR    IT 

 










Sommario :    VFR   VFR Marginale   IFR   IFR Intensivo   IFR Molto Intensivo
Visibilità : 
Base nubi : 
>= 8 km
>= 3000ft
5 / 8 km
1000 / 3000 ft
1500m / 5 km
500 / 1000 ft
800 / 1500m
200 / 500 ft
< 800m
< 200 ft
Simboli :   Temporali  Nebbia  Neve Forte  Precipitazioni Forti  Vento > 20 kt
SIGMETs :   Varie  Temporali  Ghiacco  Turbolenza  Onda orograficha  Ceneri Vulcaniche







- Altitudine del aeroporto : 16 ft
- Codice IATA : LPX


EVLA - Liepaja

ULTIMO METAR :
  • 190750Z AUTO 29007KT 250V320 9999 -RA SCT010/// BKN012/// OVC037/// 02/01 Q1012

METARs OBSOLETI :
  • 190720Z AUTO 27008KT 9999 BKN011/// OVC032/// 02/01 Q1012
  • 190650Z AUTO 26007KT 9999 FEW011/// SCT035/// OVC042/// 02/01 Q1011
  • 190620Z AUTO 28007KT 9999 -RA SCT009/// BKN033/// OVC046/// 01/01 Q1011
  • 190550Z AUTO 26007KT 9999 RA OVC013/// 02/01 Q1010
  • 190520Z AUTO 28006KT 250V310 9999 BKN007/// OVC061/// 01/01 Q1010

TAF TAF EVLA
Valido dal 19 a 06 ore il 20 a 06 ore UTC


190502Z 1906/2006 30010KT 9999 OVC010
TEMPO 1906/1914 BKN005 SCT015CB
BECMG 1914/1916 BKN015
BECMG 1923/2001 23010KT
Nessun NOTAM noto per questo aeroporto.



MetMap, La meteo Aeronautica in un colpo d'occhio ! - Copyright ORBIFLY Dicembre 2007 - Disclaimer

ORBIFLY MET'MAP TEAM :

Programmazione e sviluppo : Alexandra Zaïnal
Concezione e sviluppo : Baudouin d'Aumeries
Co-Programmazione e sviluppo : Marc-Olivier Méhu
Supporto tecnico e logistico : Manuel Goepfert
Aiuto per la traduzione : Arnaldo La Scala

Contatto : metmap@orbifly.com




FONTI E CREDITI :

   NOAA